createdAt,value
2019-01-15T00:03:48.096Z,4.23
2019-01-15T00:08:33.879Z,4.70
2019-01-15T00:13:19.722Z,4.77
2019-01-15T00:18:05.733Z,5.93
2019-01-15T00:22:51.560Z,5.03
2019-01-15T00:27:37.585Z,6.07
2019-01-15T00:32:23.279Z,9.27
2019-01-15T00:37:09.375Z,4.13
2019-01-15T00:41:55.217Z,3.87
2019-01-15T00:46:41.097Z,2.87
2019-01-15T00:51:27.039Z,2.00
2019-01-15T00:56:12.971Z,3.23
2019-01-15T01:00:59.213Z,1.10
2019-01-15T01:05:45.365Z,1.03
2019-01-15T01:10:31.069Z,1.10
2019-01-15T01:15:18.188Z,1.03
2019-01-15T01:20:04.085Z,1.53
2019-01-15T01:24:49.857Z,1.23
2019-01-15T01:29:35.769Z,2.03
2019-01-15T01:34:21.472Z,2.07
2019-01-15T01:39:09.222Z,2.17
2019-01-15T01:43:54.945Z,1.97
2019-01-15T01:48:40.645Z,4.23
2019-01-15T01:53:26.394Z,2.40
2019-01-15T01:58:12.117Z,9.67
2019-01-15T02:02:57.942Z,7.07
2019-01-15T02:07:43.798Z,3.73
2019-01-15T02:12:36.581Z,3.50
2019-01-15T02:17:16.927Z,4.97
2019-01-15T02:22:02.681Z,3.53
2019-01-15T02:26:48.449Z,4.23
2019-01-15T02:31:34.196Z,4.10
2019-01-15T02:36:19.888Z,5.93
2019-01-15T02:41:05.746Z,2.80
2019-01-15T02:45:51.487Z,2.73
2019-01-15T02:50:37.318Z,4.13
2019-01-15T02:55:23.023Z,3.33
2019-01-15T03:00:23.236Z,3.07
2019-01-15T03:05:09.864Z,5.00
2019-01-15T03:09:55.625Z,5.53
2019-01-15T03:14:41.374Z,2.83
2019-01-15T03:19:27.292Z,3.77
2019-01-15T03:24:13.034Z,2.73
2019-01-15T03:28:58.780Z,1.93
2019-01-15T03:33:44.487Z,3.33
2019-01-15T03:38:30.189Z,1.37
2019-01-15T03:43:15.861Z,2.90
2019-01-15T03:48:01.671Z,2.67
2019-01-15T03:52:47.314Z,1.60
2019-01-15T03:57:33.023Z,5.50
2019-01-15T04:02:18.954Z,3.13
2019-01-15T04:07:04.972Z,1.90
2019-01-15T04:11:50.728Z,4.67
2019-01-15T04:16:36.615Z,2.10
2019-01-15T04:21:22.370Z,1.57
2019-01-15T04:26:08.204Z,1.57
2019-01-15T04:30:53.880Z,2.50
2019-01-15T04:35:39.576Z,2.67
2019-01-15T04:40:25.313Z,4.93
2019-01-15T04:45:12.503Z,3.03
2019-01-15T04:49:58.207Z,0.60
2019-01-15T04:54:43.875Z,1.00
2019-01-15T04:59:30.388Z,1.90
2019-01-15T05:04:16.305Z,3.20
2019-01-15T05:09:02.207Z,3.77
2019-01-15T05:13:47.919Z,2.23
2019-01-15T05:18:33.760Z,3.83
2019-01-15T05:23:19.414Z,19.50
2019-01-15T05:28:05.314Z,14.93
2019-01-15T05:32:51.885Z,7.43
2019-01-15T05:37:37.687Z,1.63
2019-01-15T05:42:23.403Z,2.10
2019-01-15T05:47:09.186Z,1.10
2019-01-15T05:51:55.130Z,0.87
2019-01-15T05:56:40.867Z,1.63
2019-01-15T06:01:26.612Z,1.93
2019-01-15T06:06:12.369Z,3.40
2019-01-15T06:10:58.131Z,0.97
2019-01-15T06:15:43.867Z,5.20
2019-01-15T06:20:29.725Z,7.23
2019-01-15T06:25:15.940Z,3.77
2019-01-15T06:30:01.687Z,1.80
2019-01-15T06:34:47.609Z,2.70
2019-01-15T06:39:33.333Z,5.70
2019-01-15T06:44:19.135Z,6.43
2019-01-15T06:49:05.177Z,6.20
2019-01-15T06:53:50.987Z,5.53
2019-01-15T06:58:36.703Z,4.83
2019-01-15T07:03:22.705Z,6.93
2019-01-15T07:08:08.728Z,5.43
2019-01-15T07:12:54.667Z,5.00
2019-01-15T07:17:40.520Z,5.23
2019-01-15T07:22:26.448Z,5.13
2019-01-15T07:27:12.742Z,11.03
2019-01-15T07:31:58.621Z,7.90
2019-01-15T07:36:44.350Z,5.77
2019-01-15T07:41:30.250Z,6.47
2019-01-15T07:46:16.064Z,7.30
2019-01-15T07:51:01.846Z,6.93
2019-01-15T07:55:47.615Z,7.63
2019-01-15T08:00:33.534Z,6.33
2019-01-15T08:05:20.427Z,5.70
2019-01-15T08:10:07.761Z,4.43
2019-01-15T08:14:53.773Z,6.83
2019-01-15T08:19:39.514Z,5.17
2019-01-15T08:24:25.287Z,5.10
2019-01-15T08:29:11.275Z,4.43
2019-01-15T08:33:57.125Z,3.97
2019-01-15T08:38:42.824Z,8.93
2019-01-15T08:43:28.564Z,4.47
2019-01-15T08:48:22.515Z,4.30
2019-01-15T08:53:08.377Z,6.63
2019-01-15T08:57:54.221Z,4.83
2019-01-15T09:02:40.026Z,4.80
2019-01-15T09:07:25.805Z,6.87
2019-01-15T09:12:11.740Z,9.37
2019-01-15T09:16:57.658Z,6.43
2019-01-15T09:21:43.815Z,3.47
2019-01-15T09:26:29.813Z,9.57
2019-01-15T09:31:15.592Z,6.80
2019-01-15T09:36:01.394Z,3.33
2019-01-15T09:40:47.100Z,2.30
2019-01-15T09:45:32.979Z,2.37
2019-01-15T09:50:19.694Z,2.17
2019-01-15T09:55:06.683Z,7.90
2019-01-15T09:59:52.527Z,2.90
2019-01-15T10:04:38.325Z,3.33
2019-01-15T10:09:24.159Z,2.77
2019-01-15T10:14:09.886Z,3.50
2019-01-15T10:18:55.649Z,2.43
2019-01-15T10:23:42.078Z,3.30
2019-01-15T10:28:27.823Z,3.33
2019-01-15T10:33:31.265Z,8.37
2019-01-15T10:38:17.039Z,2.50
2019-01-15T10:43:02.959Z,3.47
2019-01-15T10:47:48.664Z,2.03
2019-01-15T10:52:34.559Z,2.27
2019-01-15T10:57:20.410Z,1.87
2019-01-15T11:02:06.511Z,2.77
2019-01-15T11:06:52.369Z,3.87
2019-01-15T11:11:38.137Z,2.73
2019-01-15T11:16:23.912Z,3.07
2019-01-15T11:21:09.738Z,5.83
2019-01-15T11:25:55.706Z,4.03
2019-01-15T11:30:41.368Z,4.90
2019-01-15T11:35:27.099Z,4.80
2019-01-15T11:40:13.469Z,3.83
2019-01-15T11:45:03.407Z,4.37
2019-01-15T11:49:46.818Z,3.80
2019-01-15T11:54:32.556Z,2.67
2019-01-15T11:59:18.986Z,3.27
2019-01-15T12:04:39.472Z,3.70
2019-01-15T12:09:59.371Z,2.23
2019-01-15T12:15:02.640Z,1.90
2019-01-15T12:20:10.335Z,3.00
2019-01-15T12:25:30.220Z,2.43
2019-01-15T12:30:33.853Z,2.20
2019-01-15T12:35:47.449Z,2.47
2019-01-15T12:41:05.325Z,2.20
2019-01-15T12:46:15.562Z,2.43
2019-01-15T12:51:32.098Z,3.53
2019-01-15T12:56:37.327Z,2.30
2019-01-15T13:01:40.727Z,1.93
2019-01-15T13:07:01.129Z,3.00
2019-01-15T13:12:04.739Z,3.37
2019-01-15T13:17:02.717Z,3.83
2019-01-15T13:22:06.100Z,3.40
2019-01-15T13:27:09.965Z,4.23
2019-01-15T13:32:25.296Z,3.40
2019-01-15T13:37:32.990Z,2.30
2019-01-15T13:42:38.526Z,2.67
2019-01-15T13:47:47.256Z,3.13
2019-01-15T13:52:38.932Z,4.07
2019-01-15T13:57:37.302Z,2.70
2019-01-15T14:02:40.844Z,2.90
2019-01-15T14:07:48.420Z,5.00
2019-01-15T14:12:51.875Z,5.63
2019-01-15T14:18:11.719Z,4.13
2019-01-15T14:23:19.574Z,2.67
2019-01-15T14:28:37.446Z,3.57
2019-01-15T14:33:45.571Z,3.53
2019-01-15T14:39:08.915Z,4.10
2019-01-15T14:44:19.558Z,4.17
2019-01-15T14:49:24.730Z,5.47
2019-01-15T14:54:23.122Z,4.57
2019-01-15T14:59:26.960Z,5.20
2019-01-15T15:04:37.548Z,3.47
2019-01-15T15:09:43.273Z,3.07
2019-01-15T15:14:41.477Z,6.10
2019-01-15T15:20:01.454Z,4.73
2019-01-15T15:25:12.087Z,4.83
2019-01-15T15:30:22.639Z,3.23
2019-01-15T15:35:41.322Z,5.60
2019-01-15T15:40:54.810Z,5.40
2019-01-15T15:45:58.553Z,5.43
2019-01-15T15:51:06.252Z,5.33
2019-01-15T15:56:13.914Z,8.50
2019-01-15T16:01:17.059Z,5.73
2019-01-15T16:06:27.964Z,5.77
2019-01-15T16:11:39.409Z,7.07
2019-01-15T16:16:42.908Z,8.00
2019-01-15T16:21:49.462Z,6.67
2019-01-15T16:27:00.459Z,7.30
2019-01-15T16:32:02.409Z,10.37
2019-01-15T16:37:04.328Z,8.70
2019-01-15T16:42:07.199Z,8.00
2019-01-15T16:47:14.871Z,9.47
2019-01-15T16:52:18.390Z,11.23
2019-01-15T16:57:21.705Z,16.53
2019-01-15T17:02:29.223Z,13.23
2019-01-15T17:07:43.298Z,10.53
2019-01-15T17:13:03.185Z,13.73
2019-01-15T17:18:04.951Z,8.50
2019-01-15T17:23:00.032Z,13.20
2019-01-15T17:28:16.794Z,13.10
2019-01-15T17:33:11.942Z,8.80
2019-01-15T17:38:19.926Z,8.43
2019-01-15T17:43:23.629Z,9.43
2019-01-15T17:48:41.566Z,19.83
2019-01-15T17:53:46.337Z,13.87
2019-01-15T17:59:00.591Z,17.97
2019-01-15T18:04:04.029Z,18.47
2019-01-15T18:09:11.672Z,17.63
2019-01-15T18:14:34.522Z,15.10
2019-01-15T18:19:37.883Z,11.43
2019-01-15T18:24:41.297Z,13.47
2019-01-15T18:29:51.944Z,13.30
2019-01-15T18:34:55.546Z,11.53
2019-01-15T18:39:53.797Z,11.13
2019-01-15T18:45:02.401Z,13.30
2019-01-15T18:50:09.152Z,12.87
2019-01-15T18:55:22.906Z,12.57
2019-01-15T19:00:43.585Z,10.57
2019-01-15T19:05:57.701Z,13.00
2019-01-15T19:11:01.804Z,11.20
2019-01-15T19:16:05.430Z,13.33
2019-01-15T19:21:06.874Z,14.03
2019-01-15T19:26:05.898Z,14.90
2019-01-15T19:31:10.121Z,14.80
2019-01-15T19:36:24.514Z,12.67
2019-01-15T19:41:39.559Z,13.73
2019-01-15T19:46:45.186Z,11.73
2019-01-15T19:51:57.761Z,11.60
2019-01-15T19:57:17.890Z,10.37
2019-01-15T20:02:21.553Z,14.13
2019-01-15T20:07:25.216Z,13.30
2019-01-15T20:12:24.199Z,13.87
2019-01-15T20:17:32.295Z,10.87
2019-01-15T20:22:39.825Z,15.50
2019-01-15T20:27:44.638Z,12.63
2019-01-15T20:32:40.497Z,16.67
2019-01-15T20:37:45.390Z,9.17
2019-01-15T20:42:59.439Z,9.00
2019-01-15T20:48:02.654Z,9.10
2019-01-15T20:52:55.384Z,16.70
2019-01-15T20:58:05.949Z,12.53
2019-01-15T21:03:09.130Z,10.93
2019-01-15T21:08:14.093Z,12.30
2019-01-15T21:13:17.433Z,7.70
2019-01-15T21:18:31.573Z,5.67
2019-01-15T21:23:34.961Z,12.33
2019-01-15T21:28:38.356Z,4.20
2019-01-15T21:33:54.133Z,4.07
2019-01-15T21:39:14.349Z,4.53
2019-01-15T21:44:31.512Z,6.13
2019-01-15T21:49:34.820Z,5.70
2019-01-15T21:54:51.472Z,14.20
2019-01-15T21:59:58.570Z,13.20
2019-01-15T22:05:12.136Z,15.30
2019-01-15T22:10:22.970Z,17.13
2019-01-15T22:15:32.824Z,19.83
2019-01-15T22:20:46.503Z,20.70
2019-01-15T22:25:49.976Z,17.87
2019-01-15T22:30:54.643Z,21.37
2019-01-15T22:36:18.021Z,24.77
2019-01-15T22:41:31.956Z,20.73
2019-01-15T22:46:54.649Z,20.27
2019-01-15T22:52:18.465Z,17.50
2019-01-15T22:57:25.983Z,16.67
2019-01-15T23:02:30.748Z,17.00
2019-01-15T23:07:33.374Z,18.00
2019-01-15T23:12:32.351Z,19.27
2019-01-15T23:17:46.119Z,16.77
2019-01-15T23:22:49.294Z,17.47
2019-01-15T23:28:03.423Z,17.83
2019-01-15T23:33:11.065Z,18.43
2019-01-15T23:38:08.702Z,15.63
2019-01-15T23:43:13.358Z,16.63
2019-01-15T23:48:16.915Z,16.57
2019-01-15T23:53:22.094Z,13.77
2019-01-15T23:58:45.630Z,16.37
